Time;durP1;ratioP1;P1;durP2;ratioP2;P2;SDS_P1;SDS_P2;PMS_P1;PMS_P2;Temp;Humidity;BMP_temperature;BMP_pressure;BME280_temperature;BME280_humidity;BME280_pressure;Samples;Min_cycle;Max_cycle;Signal;HPM_P1;HPM_P2
2022/01/16 00:01:44;;;;;;;244.90;41.63;;;;;;;;;;5053365;27;96908;-75
2022/01/16 00:04:09;;;;;;;196.85;38.95;;;;;;;;;;5052566;27;99198;-75
2022/01/16 00:06:37;;;;;;;290.08;44.92;;;;;;;;;;5060142;27;95365;-75
2022/01/16 00:09:04;;;;;;;272.15;42.85;;;;;;;;;;5055738;27;97307;-75
2022/01/16 00:11:31;;;;;;;237.15;39.08;;;;;;;;;;5070416;27;97818;-75
2022/01/16 00:13:57;;;;;;;263.73;42.22;;;;;;;;;;5053613;27;95087;-75
2022/01/16 00:16:24;;;;;;;218.65;42.30;;;;;;;;;;5063107;27;96833;-74
2022/01/16 00:18:52;;;;;;;200.55;41.28;;;;;;;;;;5064092;27;97534;-75
2022/01/16 00:21:20;;;;;;;229.45;41.22;;;;;;;;;;5067835;27;95310;-75
2022/01/16 00:23:46;;;;;;;214.75;40.72;;;;;;;;;;5073837;27;97680;-74
2022/01/16 00:26:12;;;;;;;229.98;41.53;;;;;;;;;;5063430;27;95458;-75
2022/01/16 00:28:39;;;;;;;223.38;41.45;;;;;;;;;;5053028;27;97034;-75
2022/01/16 00:31:05;;;;;;;229.23;40.20;;;;;;;;;;5052761;27;97639;-74
2022/01/16 00:33:32;;;;;;;221.70;41.75;;;;;;;;;;5052109;27;95467;-75
2022/01/16 00:35:58;;;;;;;224.75;39.88;;;;;;;;;;5054129;27;96742;-74
2022/01/16 00:38:25;;;;;;;210.70;38.25;;;;;;;;;;5050439;27;97285;-75
2022/01/16 00:40:51;;;;;;;184.00;39.28;;;;;;;;;;5053005;27;95412;-75
2022/01/16 00:43:17;;;;;;;227.30;39.80;;;;;;;;;;5055648;27;97184;-75
2022/01/16 00:45:44;;;;;;;197.80;38.75;;;;;;;;;;5052691;27;95551;-74
2022/01/16 00:48:10;;;;;;;249.98;43.17;;;;;;;;;;5069277;27;96822;-74
2022/01/16 00:50:36;;;;;;;200.93;40.33;;;;;;;;;;5032597;28;97493;-75
2022/01/16 00:53:03;;;;;;;258.00;40.47;;;;;;;;;;5031940;28;95278;-75
2022/01/16 00:55:29;;;;;;;240.23;39.78;;;;;;;;;;5032251;28;96763;-75
2022/01/16 00:57:56;;;;;;;194.35;41.25;;;;;;;;;;5051004;27;97335;-73
2022/01/16 01:00:31;;;;;;;261.10;43.10;;;;;;;;;;5051982;27;95284;-74
2022/01/16 01:02:59;;;;;;;262.27;42.47;;;;;;;;;;5051810;27;95679;-74
2022/01/16 01:05:26;;;;;;;239.20;41.22;;;;;;;;;;5055126;27;97561;-74
2022/01/16 01:07:53;;;;;;;245.50;46.10;;;;;;;;;;5053168;27;97018;-75
2022/01/16 01:10:31;;;;;;;215.73;41.33;;;;;;;;;;5052106;27;97139;-73
2022/01/16 01:13:08;;;;;;;266.30;41.60;;;;;;;;;;5051509;27;95711;-72
2022/01/16 01:15:43;;;;;;;291.60;43.60;;;;;;;;;;5052006;27;96707;-72
2022/01/16 01:18:09;;;;;;;264.13;41.65;;;;;;;;;;5067549;27;97406;-73
2022/01/16 01:20:36;;;;;;;256.15;43.50;;;;;;;;;;5073098;27;95209;-74
2022/01/16 01:23:02;;;;;;;283.55;42.45;;;;;;;;;;5054740;27;97074;-73
2022/01/16 01:25:29;;;;;;;254.23;42.95;;;;;;;;;;5051820;27;97038;-73
2022/01/16 01:27:55;;;;;;;248.20;40.92;;;;;;;;;;5065506;27;95549;-72
2022/01/16 01:30:24;;;;;;;249.43;42.13;;;;;;;;;;5040147;27;100418;-74
2022/01/16 01:32:52;;;;;;;254.90;39.50;;;;;;;;;;5051827;27;95338;-72
2022/01/16 01:35:18;;;;;;;255.05;42.60;;;;;;;;;;5051655;27;96844;-74
2022/01/16 01:37:45;;;;;;;317.17;45.30;;;;;;;;;;5053195;27;96161;-73
2022/01/16 01:40:17;;;;;;;281.27;44.25;;;;;;;;;;5063366;27;96215;-74
2022/01/16 01:42:48;;;;;;;229.17;40.73;;;;;;;;;;5069695;27;96766;-75
2022/01/16 01:51:06;;;;;;;252.13;40.67;;;;;;;;;;5075985;27;96860;-73
2022/01/16 01:53:33;;;;;;;226.63;42.17;;;;;;;;;;5075754;27;95217;-74
2022/01/16 01:55:59;;;;;;;216.57;38.25;;;;;;;;;;5075718;27;95823;-73
2022/01/16 01:58:26;;;;;;;237.77;41.25;;;;;;;;;;5053104;27;97325;-73
2022/01/16 02:00:52;;;;;;;260.33;41.30;;;;;;;;;;5035398;27;95320;-72
2022/01/16 02:03:28;;;;;;;263.63;43.00;;;;;;;;;;5034328;28;99958;-73
2022/01/16 02:05:54;;;;;;;253.20;41.17;;;;;;;;;;5035013;28;97729;-74
2022/01/16 02:08:21;;;;;;;284.70;43.45;;;;;;;;;;5046419;27;95178;-73
2022/01/16 02:10:47;;;;;;;244.18;42.42;;;;;;;;;;5057848;27;96731;-73
2022/01/16 02:13:25;;;;;;;269.75;44.55;;;;;;;;;;5053823;27;95388;-74
2022/01/16 02:29:39;;;;;;;239.23;41.30;;;;;;;;;;5055407;27;95231;-74
2022/01/16 02:34:35;;;;;;;256.30;41.28;;;;;;;;;;5058040;27;97890;-73
2022/01/16 02:37:07;;;;;;;222.63;39.83;;;;;;;;;;5055404;27;97713;-75
2022/01/16 02:39:36;;;;;;;321.97;47.63;;;;;;;;;;5036910;27;98508;-74
2022/01/16 02:42:04;;;;;;;307.15;43.17;;;;;;;;;;5054966;27;95528;-75
2022/01/16 02:44:35;;;;;;;244.52;41.08;;;;;;;;;;5053848;27;96879;-74
2022/01/16 02:47:02;;;;;;;278.90;42.75;;;;;;;;;;5054335;27;97400;-74
2022/01/16 02:49:30;;;;;;;334.15;43.90;;;;;;;;;;5043842;27;95287;-74
2022/01/16 02:52:00;;;;;;;274.25;44.40;;;;;;;;;;5033649;28;96146;-74
2022/01/16 02:54:27;;;;;;;287.55;44.72;;;;;;;;;;5033894;28;97296;-75
2022/01/16 02:56:54;;;;;;;355.10;45.63;;;;;;;;;;5037989;28;95672;-74
2022/01/16 02:59:21;;;;;;;372.75;46.45;;;;;;;;;;5053945;27;97573;-74
2022/01/16 03:01:48;;;;;;;282.75;41.22;;;;;;;;;;5052001;27;95516;-72
2022/01/16 03:04:18;;;;;;;351.20;44.40;;;;;;;;;;5073148;27;96717;-75
2022/01/16 03:06:45;;;;;;;321.38;45.58;;;;;;;;;;5074337;27;97320;-74
2022/01/16 03:09:11;;;;;;;348.02;43.70;;;;;;;;;;5062654;27;95188;-74
2022/01/16 03:11:41;;;;;;;336.95;43.22;;;;;;;;;;5054332;27;96860;-74
2022/01/16 03:14:11;;;;;;;385.63;47.63;;;;;;;;;;5053646;27;97340;-74
2022/01/16 03:16:41;;;;;;;338.27;44.85;;;;;;;;;;5054678;27;95355;-73
2022/01/16 03:22:02;;;;;;;321.27;44.83;;;;;;;;;;5053845;27;95442;-74
2022/01/16 03:24:39;;;;;;;344.42;44.85;;;;;;;;;;5054475;27;98725;-74
2022/01/16 03:27:06;;;;;;;382.85;47.03;;;;;;;;;;5054183;27;97313;-74
2022/01/16 03:29:33;;;;;;;257.23;42.45;;;;;;;;;;5058053;27;95476;-73
2022/01/16 03:32:00;;;;;;;327.63;44.47;;;;;;;;;;5053948;27;97649;-74
2022/01/16 03:34:27;;;;;;;319.20;44.22;;;;;;;;;;5035183;27;97667;-74
2022/01/16 03:36:53;;;;;;;271.90;42.83;;;;;;;;;;5054266;27;95414;-74
2022/01/16 03:39:20;;;;;;;303.52;43.72;;;;;;;;;;5054645;27;96857;-72
2022/01/16 03:41:46;;;;;;;272.58;43.25;;;;;;;;;;5056380;27;97239;-74
2022/01/16 03:44:12;;;;;;;332.42;45.42;;;;;;;;;;5052643;27;97494;-75
2022/01/16 03:46:40;;;;;;;292.35;42.65;;;;;;;;;;5053489;27;97529;-74
2022/01/16 03:49:08;;;;;;;331.52;45.40;;;;;;;;;;5035790;27;96639;-74
2022/01/16 03:51:35;;;;;;;335.98;44.22;;;;;;;;;;5073513;27;96852;-74
2022/01/16 03:54:02;;;;;;;325.38;45.65;;;;;;;;;;5074295;27;97264;-74
2022/01/16 03:56:29;;;;;;;356.98;46.05;;;;;;;;;;5068083;27;95398;-74
2022/01/16 03:58:55;;;;;;;361.83;45.15;;;;;;;;;;5045029;27;96779;-73
2022/01/16 04:01:24;;;;;;;327.17;46.50;;;;;;;;;;5070866;27;97352;-72
2022/01/16 04:03:51;;;;;;;320.42;43.65;;;;;;;;;;5076992;27;95002;-73
2022/01/16 04:06:19;;;;;;;349.95;45.92;;;;;;;;;;5073652;27;97749;-72
2022/01/16 04:08:50;;;;;;;317.52;44.90;;;;;;;;;;5074190;27;95451;-72
2022/01/16 04:11:16;;;;;;;271.42;43.78;;;;;;;;;;5051088;27;96816;-72
2022/01/16 04:13:55;;;;;;;348.10;45.65;;;;;;;;;;5032105;27;97365;-72
2022/01/16 04:16:23;;;;;;;261.17;42.17;;;;;;;;;;5033005;28;95295;-73
2022/01/16 04:18:53;;;;;;;250.27;41.70;;;;;;;;;;5035724;27;97094;-74
2022/01/16 04:21:20;;;;;;;271.75;43.35;;;;;;;;;;5066813;27;97478;-72
2022/01/16 04:23:46;;;;;;;248.85;41.20;;;;;;;;;;5076704;27;95219;-74
2022/01/16 04:26:13;;;;;;;317.73;45.75;;;;;;;;;;5063605;27;97702;-73
2022/01/16 04:28:39;;;;;;;305.88;46.42;;;;;;;;;;5052932;27;95354;-73
2022/01/16 04:31:06;;;;;;;231.70;42.05;;;;;;;;;;5064208;27;97148;-73
2022/01/16 04:33:32;;;;;;;236.30;44.50;;;;;;;;;;5055048;27;97396;-75
2022/01/16 04:35:58;;;;;;;238.98;45.22;;;;;;;;;;5074013;27;95307;-73
2022/01/16 04:38:25;;;;;;;312.60;46.40;;;;;;;;;;5072801;27;96816;-73
2022/01/16 04:43:48;;;;;;;280.90;46.95;;;;;;;;;;5047216;27;95242;-75
2022/01/16 04:46:16;;;;;;;288.95;45.85;;;;;;;;;;5034520;28;95521;-73
2022/01/16 04:48:42;;;;;;;293.38;47.35;;;;;;;;;;5032191;28;95352;-73
2022/01/16 04:51:09;;;;;;;255.93;45.38;;;;;;;;;;5049229;27;96629;-73
2022/01/16 04:53:36;;;;;;;260.70;45.22;;;;;;;;;;5066002;27;97799;-73
2022/01/16 04:56:02;;;;;;;271.92;47.78;;;;;;;;;;5032524;27;95032;-74
2022/01/16 04:58:29;;;;;;;329.48;48.75;;;;;;;;;;5036441;27;97380;-74
2022/01/16 05:00:55;;;;;;;300.38;52.70;;;;;;;;;;5044557;27;97891;-75
2022/01/16 05:03:23;;;;;;;343.50;55.28;;;;;;;;;;5071219;27;95379;-75
2022/01/16 05:05:49;;;;;;;311.13;54.78;;;;;;;;;;5052466;27;96795;-74
2022/01/16 05:08:15;;;;;;;257.67;50.55;;;;;;;;;;5055316;27;96992;-74
2022/01/16 05:10:42;;;;;;;322.90;55.75;;;;;;;;;;5053519;27;96504;-74
2022/01/16 05:18:36;;;;;;;268.60;51.83;;;;;;;;;;5032297;28;97024;-74
2022/01/16 05:21:02;;;;;;;280.90;54.17;;;;;;;;;;5031487;27;97395;-74
2022/01/16 05:23:29;;;;;;;300.55;55.83;;;;;;;;;;5014060;28;95394;-75
2022/01/16 05:25:55;;;;;;;290.60;55.70;;;;;;;;;;5032214;28;96837;-74
2022/01/16 05:28:22;;;;;;;254.30;55.25;;;;;;;;;;5031198;27;97410;-75
2022/01/16 05:30:48;;;;;;;237.95;53.85;;;;;;;;;;5052245;27;95304;-75
2022/01/16 05:33:18;;;;;;;290.95;61.85;;;;;;;;;;5032488;27;97814;-73
2022/01/16 05:35:44;;;;;;;269.25;55.05;;;;;;;;;;5051457;27;95311;-74
2022/01/16 05:38:11;;;;;;;274.30;60.38;;;;;;;;;;5052205;27;96802;-74
2022/01/16 05:40:37;;;;;;;249.13;56.58;;;;;;;;;;5052143;27;96232;-73
2022/01/16 05:43:04;;;;;;;221.40;53.67;;;;;;;;;;5067151;27;96278;-73
2022/01/16 05:45:30;;;;;;;257.98;59.72;;;;;;;;;;5054982;27;96773;-72
2022/01/16 05:47:57;;;;;;;224.38;56.10;;;;;;;;;;5015616;28;97344;-73
2022/01/16 05:50:23;;;;;;;265.27;59.97;;;;;;;;;;5031985;28;95876;-74
2022/01/16 05:52:50;;;;;;;234.95;55.42;;;;;;;;;;5039967;27;96671;-73
2022/01/16 05:55:17;;;;;;;224.75;58.03;;;;;;;;;;5032809;27;95594;-73
2022/01/16 05:57:43;;;;;;;237.88;59.53;;;;;;;;;;5052174;27;96615;-74
2022/01/16 06:00:10;;;;;;;264.67;60.10;;;;;;;;;;5051541;27;96512;-73
2022/01/16 06:02:37;;;;;;;231.75;59.58;;;;;;;;;;5040139;27;95436;-74
2022/01/16 06:05:03;;;;;;;215.18;61.15;;;;;;;;;;5072269;27;97130;-74
2022/01/16 06:07:30;;;;;;;225.55;60.30;;;;;;;;;;5071917;27;97357;-75
2022/01/16 06:09:56;;;;;;;229.27;59.63;;;;;;;;;;5071844;27;95414;-73
2022/01/16 06:12:22;;;;;;;223.55;57.55;;;;;;;;;;5067156;27;96823;-74
2022/01/16 06:14:49;;;;;;;217.10;57.70;;;;;;;;;;5075062;27;95260;-74
2022/01/16 06:17:16;;;;;;;211.73;57.50;;;;;;;;;;5035833;27;96766;-73
2022/01/16 06:19:42;;;;;;;219.00;60.08;;;;;;;;;;5051644;27;97687;-74
2022/01/16 06:22:08;;;;;;;211.02;57.92;;;;;;;;;;5055576;27;96053;-73
2022/01/16 06:24:38;;;;;;;203.95;57.10;;;;;;;;;;5053970;27;96893;-74
2022/01/16 06:27:08;;;;;;;188.52;55.75;;;;;;;;;;5071763;27;97939;-75
2022/01/16 06:29:34;;;;;;;205.80;58.15;;;;;;;;;;5025271;27;95456;-75
2022/01/16 06:32:01;;;;;;;184.45;55.22;;;;;;;;;;5047081;27;97150;-76
2022/01/16 06:34:28;;;;;;;188.52;58.50;;;;;;;;;;5054456;27;97771;-75
2022/01/16 06:36:54;;;;;;;193.32;55.25;;;;;;;;;;5041206;27;96817;-75
2022/01/16 06:39:21;;;;;;;183.27;55.13;;;;;;;;;;5033849;28;97335;-73
2022/01/16 06:41:48;;;;;;;182.13;55.13;;;;;;;;;;5045442;27;95137;-75
2022/01/16 06:44:34;;;;;;;169.93;52.55;;;;;;;;;;5074968;27;98371;-75
2022/01/16 06:47:00;;;;;;;172.52;55.55;;;;;;;;;;5037234;27;97699;-75
2022/01/16 06:49:27;;;;;;;187.90;56.83;;;;;;;;;;5034512;28;95315;-75
2022/01/16 06:51:53;;;;;;;194.98;54.92;;;;;;;;;;5049986;27;96979;-75
2022/01/16 06:54:20;;;;;;;169.75;55.55;;;;;;;;;;5049049;27;97303;-73
2022/01/16 06:56:47;;;;;;;179.98;56.40;;;;;;;;;;5051729;27;95332;-75
2022/01/16 06:59:16;;;;;;;172.13;56.35;;;;;;;;;;5044392;27;97522;-75
2022/01/16 07:01:51;;;;;;;168.35;54.05;;;;;;;;;;5073842;27;95339;-75
2022/01/16 07:04:18;;;;;;;169.93;55.70;;;;;;;;;;5048525;27;96981;-76
2022/01/16 07:06:44;;;;;;;158.23;54.38;;;;;;;;;;5033413;27;97344;-77
2022/01/16 07:09:10;;;;;;;165.70;53.22;;;;;;;;;;5037921;27;95443;-75
2022/01/16 07:11:37;;;;;;;167.38;54.50;;;;;;;;;;5034183;28;96726;-75
2022/01/16 07:14:03;;;;;;;144.60;51.40;;;;;;;;;;5026398;27;97318;-74
2022/01/16 07:16:30;;;;;;;158.43;54.17;;;;;;;;;;5054085;27;95475;-76
2022/01/16 07:18:56;;;;;;;151.18;52.85;;;;;;;;;;5056167;27;96671;-76
2022/01/16 07:21:23;;;;;;;147.20;52.45;;;;;;;;;;5042572;27;96347;-75
2022/01/16 07:23:49;;;;;;;150.85;52.40;;;;;;;;;;5037623;27;96869;-75
2022/01/16 07:26:17;;;;;;;153.00;52.85;;;;;;;;;;5033514;28;97198;-76
2022/01/16 07:28:43;;;;;;;138.05;50.10;;;;;;;;;;5033439;27;96444;-75
2022/01/16 07:31:10;;;;;;;132.27;49.97;;;;;;;;;;5044008;27;96815;-75
2022/01/16 07:33:36;;;;;;;140.10;50.05;;;;;;;;;;5038926;27;97331;-75
2022/01/16 07:36:03;;;;;;;132.55;49.75;;;;;;;;;;5036447;27;95347;-75
2022/01/16 07:38:29;;;;;;;128.85;49.97;;;;;;;;;;5052923;27;96931;-75
2022/01/16 07:40:56;;;;;;;133.10;51.58;;;;;;;;;;5043031;27;97746;-74
2022/01/16 07:43:23;;;;;;;132.77;50.85;;;;;;;;;;5051635;27;96913;-75
2022/01/16 07:45:49;;;;;;;120.80;50.17;;;;;;;;;;5052020;27;97248;-76
2022/01/16 07:48:16;;;;;;;113.70;45.25;;;;;;;;;;5052776;27;95477;-73
2022/01/16 07:50:42;;;;;;;102.45;44.17;;;;;;;;;;5041862;27;97236;-76
2022/01/16 07:53:09;;;;;;;97.10;41.90;;;;;;;;;;5047108;27;99678;-74
2022/01/16 07:55:35;;;;;;;97.00;43.65;;;;;;;;;;5051004;27;95719;-75
2022/01/16 07:58:02;;;;;;;96.57;42.97;;;;;;;;;;5058816;27;96994;-75
2022/01/16 08:00:30;;;;;;;94.75;41.80;;;;;;;;;;5052855;27;98191;-75
2022/01/16 08:02:57;;;;;;;97.15;42.63;;;;;;;;;;5056115;27;95317;-75
2022/01/16 08:05:25;;;;;;;81.53;40.33;;;;;;;;;;5052350;27;99194;-75
2022/01/16 08:07:51;;;;;;;91.82;40.45;;;;;;;;;;5053161;27;95037;-74
2022/01/16 08:10:18;;;;;;;93.75;41.03;;;;;;;;;;5044326;27;96348;-76
2022/01/16 08:12:44;;;;;;;98.60;41.40;;;;;;;;;;5051700;27;97363;-75
2022/01/16 08:15:14;;;;;;;86.32;38.13;;;;;;;;;;5061444;27;95319;-73
2022/01/16 08:17:40;;;;;;;83.07;37.70;;;;;;;;;;5052325;27;96686;-75
2022/01/16 08:20:10;;;;;;;84.03;38.55;;;;;;;;;;5046394;27;97330;-75
2022/01/16 08:22:38;;;;;;;85.10;38.55;;;;;;;;;;5034587;28;95448;-74
2022/01/16 08:25:05;;;;;;;73.65;34.95;;;;;;;;;;5031804;28;97319;-75
2022/01/16 08:27:32;;;;;;;76.93;35.70;;;;;;;;;;5040700;27;95435;-75
2022/01/16 08:30:03;;;;;;;77.78;34.80;;;;;;;;;;5050441;27;96955;-76
2022/01/16 08:32:29;;;;;;;68.85;33.25;;;;;;;;;;5051682;27;97835;-76
2022/01/16 08:34:55;;;;;;;74.05;33.88;;;;;;;;;;5053182;27;95349;-76
2022/01/16 08:37:22;;;;;;;65.05;32.50;;;;;;;;;;5034170;27;96945;-77
2022/01/16 08:39:48;;;;;;;63.35;32.03;;;;;;;;;;5054419;27;96371;-77
2022/01/16 08:42:15;;;;;;;63.70;32.05;;;;;;;;;;5065443;27;95366;-77
2022/01/16 08:44:42;;;;;;;65.43;31.80;;;;;;;;;;5068081;27;96037;-77
2022/01/16 08:47:09;;;;;;;63.28;29.88;;;;;;;;;;5063411;27;95419;-74
2022/01/16 08:49:36;;;;;;;58.05;28.88;;;;;;;;;;5051804;27;95962;-76
2022/01/16 08:52:10;;;;;;;60.15;28.80;;;;;;;;;;5033990;27;97331;-77
2022/01/16 08:54:37;;;;;;;52.17;27.90;;;;;;;;;;5051811;27;95213;-77
2022/01/16 08:57:03;;;;;;;54.97;29.38;;;;;;;;;;5052233;27;97237;-76
2022/01/16 08:59:30;;;;;;;52.75;27.92;;;;;;;;;;5050864;27;97737;-76
2022/01/16 09:01:57;;;;;;;62.58;28.40;;;;;;;;;;5050388;27;95726;-76
2022/01/16 09:04:23;;;;;;;57.33;27.77;;;;;;;;;;5052019;27;95214;-77
2022/01/16 09:06:50;;;;;;;66.95;29.40;;;;;;;;;;5036699;27;97553;-76
2022/01/16 09:09:16;;;;;;;56.22;26.25;;;;;;;;;;5051695;27;95779;-76
2022/01/16 09:11:43;;;;;;;48.60;25.70;;;;;;;;;;5052249;27;98593;-76
2022/01/16 09:14:09;;;;;;;51.60;26.17;;;;;;;;;;5051186;27;95353;-75
2022/01/16 09:16:36;;;;;;;48.10;24.80;;;;;;;;;;5051233;27;97236;-77
2022/01/16 09:19:03;;;;;;;47.72;24.23;;;;;;;;;;5051041;27;97178;-76
2022/01/16 09:21:29;;;;;;;46.55;24.27;;;;;;;;;;5055860;27;95504;-77
2022/01/16 09:23:55;;;;;;;49.15;25.23;;;;;;;;;;5038219;27;97019;-76
2022/01/16 09:26:23;;;;;;;48.85;24.48;;;;;;;;;;5031349;27;97274;-75
2022/01/16 09:28:49;;;;;;;50.80;25.60;;;;;;;;;;5051679;27;96665;-77
2022/01/16 09:31:16;;;;;;;52.20;25.70;;;;;;;;;;5033368;27;97428;-76
2022/01/16 09:33:43;;;;;;;49.85;26.02;;;;;;;;;;5062242;27;95447;-77
2022/01/16 09:36:10;;;;;;;57.53;28.27;;;;;;;;;;5050737;27;97019;-76
2022/01/16 09:38:37;;;;;;;57.55;26.30;;;;;;;;;;5032366;27;97452;-74
2022/01/16 09:41:06;;;;;;;57.08;25.85;;;;;;;;;;5042259;27;95385;-76
2022/01/16 09:43:34;;;;;;;73.25;31.88;;;;;;;;;;5051699;27;96872;-76
2022/01/16 09:46:01;;;;;;;64.90;28.50;;;;;;;;;;5044711;27;97757;-75
2022/01/16 09:48:28;;;;;;;67.93;30.08;;;;;;;;;;5044093;27;95412;-76
2022/01/16 09:50:54;;;;;;;65.90;29.27;;;;;;;;;;5050989;27;96742;-75
2022/01/16 09:53:21;;;;;;;70.50;29.52;;;;;;;;;;5049950;27;95333;-76
2022/01/16 09:55:47;;;;;;;73.15;31.27;;;;;;;;;;5049863;27;96623;-75
2022/01/16 09:58:14;;;;;;;71.03;29.73;;;;;;;;;;5045746;27;98549;-74
2022/01/16 10:00:40;;;;;;;67.20;30.45;;;;;;;;;;5051257;27;95416;-74
2022/01/16 10:03:09;;;;;;;69.35;30.85;;;;;;;;;;5043673;27;96878;-74
2022/01/16 10:05:37;;;;;;;71.80;31.17;;;;;;;;;;5053797;27;96232;-76
2022/01/16 10:08:05;;;;;;;73.60;31.50;;;;;;;;;;5048170;27;95320;-76
2022/01/16 10:10:39;;;;;;;79.78;33.05;;;;;;;;;;5027860;27;96947;-73
2022/01/16 10:14:54;;;;;;;87.65;36.60;;;;;;;;;;4999861;28;95338;-75
2022/01/16 10:17:24;;;;;;;89.78;36.85;;;;;;;;;;4982054;28;97521;-74
2022/01/16 10:20:02;;;;;;;89.20;35.92;;;;;;;;;;4987163;28;95334;-74
2022/01/16 10:22:43;;;;;;;84.47;35.42;;;;;;;;;;4979035;28;96674;-75
2022/01/16 10:25:10;;;;;;;86.85;35.28;;;;;;;;;;4989289;28;96179;-75
2022/01/16 10:27:40;;;;;;;94.13;37.80;;;;;;;;;;4975582;28;95348;-73
2022/01/16 10:30:08;;;;;;;96.78;41.92;;;;;;;;;;4977395;28;97000;-74
2022/01/16 10:32:52;;;;;;;95.88;37.38;;;;;;;;;;4977124;28;97718;-76
2022/01/16 10:35:21;;;;;;;96.90;37.00;;;;;;;;;;4988758;28;95512;-76
2022/01/16 10:37:50;;;;;;;95.53;38.67;;;;;;;;;;4986423;28;97324;-75
2022/01/16 10:40:32;;;;;;;98.10;38.27;;;;;;;;;;4983194;28;95536;-77
2022/01/16 10:43:03;;;;;;;100.90;39.05;;;;;;;;;;4989270;28;97079;-73
2022/01/16 10:45:33;;;;;;;96.43;39.00;;;;;;;;;;4970618;28;97690;-76
2022/01/16 10:48:00;;;;;;;111.72;39.20;;;;;;;;;;4977476;28;95925;-76
2022/01/16 10:50:34;;;;;;;104.22;36.85;;;;;;;;;;4978924;28;97274;-76
2022/01/16 10:53:05;;;;;;;108.82;38.33;;;;;;;;;;4969167;28;97306;-75
2022/01/16 10:55:38;;;;;;;107.78;38.75;;;;;;;;;;4977518;28;95430;-76
2022/01/16 10:58:04;;;;;;;104.47;38.70;;;;;;;;;;4980002;28;97176;-75
2022/01/16 11:00:30;;;;;;;114.35;40.08;;;;;;;;;;4984955;28;95354;-76
2022/01/16 11:02:58;;;;;;;114.93;38.70;;;;;;;;;;4985988;28;97215;-78
2022/01/16 11:05:27;;;;;;;104.78;38.28;;;;;;;;;;4984424;28;97774;-75
2022/01/16 11:07:58;;;;;;;115.82;41.28;;;;;;;;;;4983427;28;95450;-73
2022/01/16 11:10:26;;;;;;;115.10;39.38;;;;;;;;;;4983498;28;97318;-75
2022/01/16 11:12:53;;;;;;;105.15;40.45;;;;;;;;;;4984426;28;97388;-75
2022/01/16 11:15:20;;;;;;;122.75;42.00;;;;;;;;;;4984661;28;95183;-74
2022/01/16 11:17:47;;;;;;;113.30;40.38;;;;;;;;;;4986361;28;98071;-76
2022/01/16 11:20:14;;;;;;;121.88;41.90;;;;;;;;;;4987332;28;97825;-78
2022/01/16 11:23:29;;;;;;;117.95;39.92;;;;;;;;;;4982910;28;96679;-76
2022/01/16 11:25:36;;;;;;;119.63;39.33;;;;;;;;;;4973274;28;97510;-75
2022/01/16 11:28:04;;;;;;;117.78;37.67;;;;;;;;;;4971831;28;95056;-74
2022/01/16 11:30:31;;;;;;;123.38;40.17;;;;;;;;;;4970471;28;97116;-75
2022/01/16 11:32:58;;;;;;;114.70;38.55;;;;;;;;;;4970782;28;97276;-76
2022/01/16 11:35:26;;;;;;;126.57;39.95;;;;;;;;;;4971058;28;95227;-77
2022/01/16 11:37:53;;;;;;;129.98;41.78;;;;;;;;;;4971747;28;96719;-74
2022/01/16 11:40:37;;;;;;;121.25;39.85;;;;;;;;;;4970508;28;97255;-74
2022/01/16 11:43:23;;;;;;;112.05;35.88;;;;;;;;;;4972994;28;95519;-74
2022/01/16 11:45:51;;;;;;;113.72;35.63;;;;;;;;;;4973253;28;97339;-76
2022/01/16 11:48:19;;;;;;;117.03;37.60;;;;;;;;;;4977394;28;95474;-74
2022/01/16 11:50:46;;;;;;;111.93;37.58;;;;;;;;;;4969458;28;97028;-77
2022/01/16 11:53:32;;;;;;;110.38;37.17;;;;;;;;;;4969749;28;97399;-74
2022/01/16 11:55:58;;;;;;;127.93;39.30;;;;;;;;;;4978459;28;95954;-75
2022/01/16 11:58:25;;;;;;;123.47;41.38;;;;;;;;;;4981026;28;96766;-77
2022/01/16 12:00:51;;;;;;;128.70;39.40;;;;;;;;;;4977535;28;97795;-74
2022/01/16 12:03:34;;;;;;;121.18;38.38;;;;;;;;;;4976666;28;95335;-74
2022/01/16 12:06:27;;;;;;;114.80;38.40;;;;;;;;;;4984010;28;97030;-75
2022/01/16 12:08:56;;;;;;;139.32;39.75;;;;;;;;;;4977638;28;95302;-74
2022/01/16 12:11:49;;;;;;;130.57;39.90;;;;;;;;;;4977241;28;97150;-76
2022/01/16 12:14:35;;;;;;;122.35;39.30;;;;;;;;;;4961045;28;96145;-75
2022/01/16 12:17:22;;;;;;;125.78;40.03;;;;;;;;;;4971420;28;95221;-74
2022/01/16 12:19:48;;;;;;;138.10;43.85;;;;;;;;;;4971989;28;96984;-75
2022/01/16 12:22:17;;;;;;;135.75;40.22;;;;;;;;;;4974805;28;98784;-74
2022/01/16 12:24:45;;;;;;;134.27;40.78;;;;;;;;;;4978234;28;95203;-75
2022/01/16 12:27:24;;;;;;;127.38;41.28;;;;;;;;;;4977976;28;96062;-75
2022/01/16 12:30:10;;;;;;;129.27;40.03;;;;;;;;;;4972721;28;95309;-74
2022/01/16 12:32:52;;;;;;;119.85;38.65;;;;;;;;;;4971948;28;96869;-73
2022/01/16 12:35:37;;;;;;;125.70;39.97;;;;;;;;;;4972626;28;97284;-73
2022/01/16 12:38:17;;;;;;;124.75;39.72;;;;;;;;;;4968064;28;95337;-73
2022/01/16 12:40:45;;;;;;;137.25;40.45;;;;;;;;;;4970063;28;95646;-73
2022/01/16 12:43:17;;;;;;;120.15;39.80;;;;;;;;;;4970260;28;96233;-74
2022/01/16 12:45:44;;;;;;;118.67;42.47;;;;;;;;;;4974886;28;96361;-76
2022/01/16 12:48:10;;;;;;;120.28;39.22;;;;;;;;;;4971557;28;96969;-76
2022/01/16 12:50:37;;;;;;;118.28;42.20;;;;;;;;;;4978939;28;97279;-76
2022/01/16 12:53:04;;;;;;;108.93;38.92;;;;;;;;;;4974876;28;96807;-77
2022/01/16 12:55:32;;;;;;;110.82;39.85;;;;;;;;;;4974536;28;97674;-73
2022/01/16 12:58:17;;;;;;;108.90;38.35;;;;;;;;;;4983367;28;95537;-74
2022/01/16 13:01:03;;;;;;;113.35;39.80;;;;;;;;;;4987568;28;96825;-74
2022/01/16 13:03:35;;;;;;;95.47;36.03;;;;;;;;;;4983048;28;96032;-76
2022/01/16 13:06:02;;;;;;;;;;;;;;;;;;4970846;28;95519;-75
2022/01/16 13:08:28;;;;;;;98.63;35.75;;;;;;;;;;4969267;28;126923;-74
2022/01/16 13:11:12;;;;;;;92.20;35.17;;;;;;;;;;4974595;28;97188;-75
2022/01/16 13:13:39;;;;;;;89.55;35.13;;;;;;;;;;4965099;28;95184;-73
2022/01/16 13:16:22;;;;;;;93.60;36.70;;;;;;;;;;4986740;28;96725;-73
2022/01/16 13:19:02;;;;;;;94.85;40.15;;;;;;;;;;4971162;28;96823;-73
2022/01/16 13:21:38;;;;;;;96.38;36.83;;;;;;;;;;4971107;28;97121;-74
2022/01/16 13:24:08;;;;;;;93.18;38.00;;;;;;;;;;4962425;28;97327;-77
2022/01/16 13:26:35;;;;;;;91.95;36.38;;;;;;;;;;5002773;28;95264;-74
2022/01/16 13:29:03;;;;;;;89.57;36.75;;;;;;;;;;4990299;28;96617;-74
2022/01/16 13:31:35;;;;;;;78.90;35.22;;;;;;;;;;4990750;28;97325;-74
2022/01/16 13:34:11;;;;;;;78.72;33.67;;;;;;;;;;4975579;28;95283;-73
2022/01/16 13:36:38;;;;;;;74.30;34.15;;;;;;;;;;4978185;28;96688;-75
2022/01/16 13:39:05;;;;;;;75.00;31.23;;;;;;;;;;4968609;28;95241;-73
2022/01/16 13:41:31;;;;;;;67.40;31.42;;;;;;;;;;4962808;28;95893;-73
2022/01/16 13:43:58;;;;;;;70.07;31.10;;;;;;;;;;4961275;28;97608;-74
2022/01/16 13:46:26;;;;;;;70.80;30.27;;;;;;;;;;4959185;28;95601;-75
2022/01/16 13:48:58;;;;;;;70.57;30.52;;;;;;;;;;4959843;28;96979;-76
2022/01/16 13:51:30;;;;;;;59.00;27.08;;;;;;;;;;4958703;28;97576;-74
2022/01/16 13:54:08;;;;;;;62.75;28.45;;;;;;;;;;4961926;28;95269;-74
2022/01/16 13:56:37;;;;;;;68.82;29.35;;;;;;;;;;4964750;28;97111;-76
2022/01/16 13:59:09;;;;;;;63.78;26.90;;;;;;;;;;4969844;28;97451;-76
2022/01/16 14:01:39;;;;;;;64.20;26.90;;;;;;;;;;4966696;28;96830;-78
2022/01/16 14:04:13;;;;;;;55.95;25.75;;;;;;;;;;4966460;28;97608;-74
2022/01/16 14:07:05;;;;;;;56.78;24.42;;;;;;;;;;4962869;28;95504;-73
2022/01/16 14:09:43;;;;;;;50.83;23.08;;;;;;;;;;4967362;28;96666;-73
2022/01/16 14:12:10;;;;;;;58.22;23.85;;;;;;;;;;4970307;28;97335;-74
2022/01/16 14:14:38;;;;;;;49.13;22.30;;;;;;;;;;4968013;28;95313;-75
2022/01/16 14:19:39;;;;;;;47.33;22.30;;;;;;;;;;4973889;28;97269;-75
2022/01/16 14:22:12;;;;;;;50.88;22.48;;;;;;;;;;4975185;28;95630;-75
2022/01/16 14:24:39;;;;;;;49.95;22.80;;;;;;;;;;4966204;28;97417;-75
2022/01/16 14:27:09;;;;;;;54.25;23.30;;;;;;;;;;4972435;28;95540;-74
2022/01/16 14:29:36;;;;;;;54.15;23.95;;;;;;;;;;4965571;28;100444;-75
2022/01/16 14:32:03;;;;;;;49.97;23.63;;;;;;;;;;4969110;28;97327;-73
2022/01/16 14:34:33;;;;;;;50.63;24.17;;;;;;;;;;4968965;28;95224;-73
2022/01/16 14:37:00;;;;;;;54.67;25.38;;;;;;;;;;4969115;28;96907;-75
2022/01/16 14:39:41;;;;;;;57.03;25.33;;;;;;;;;;4969545;28;97112;-75
2022/01/16 14:42:30;;;;;;;59.67;25.33;;;;;;;;;;4971722;28;96632;-73
2022/01/16 14:44:57;;;;;;;57.45;25.95;;;;;;;;;;4967978;28;97836;-73
2022/01/16 14:47:23;;;;;;;55.88;26.45;;;;;;;;;;4969151;28;95932;-75
2022/01/16 14:49:49;;;;;;;61.60;27.75;;;;;;;;;;4969274;28;97262;-73
2022/01/16 14:52:16;;;;;;;74.30;28.83;;;;;;;;;;4960743;28;97209;-75
2022/01/16 14:54:47;;;;;;;65.10;28.58;;;;;;;;;;4969590;28;95252;-73
2022/01/16 14:57:14;;;;;;;69.85;30.38;;;;;;;;;;4968494;28;96774;-75